Round Oak, Georgia
Current Conditions -  °F | °C
As of 1:55 AM on Monday 24 Nov 2014 (Local Time) from KMLJ Reporting Station
Broken Clouds Broken Clouds  
Wind Chill: 16°   Ceiling: 2200
Heat Index: 16°   Visibility: 7mi
Dew Point: 16°   Wind: 0mph
Humidity: 100%   Direction: NA
Pressure: 29.8"   Gusts: NA
Location:  33.177°N, 83.708°W
Report Text: KMLJ 240655Z AUTO 00000KT 7SM BKN022 16/16 A2980 RMK AO2
Loading
Personal Weather Stations






























Interactive Weather Map New forecast layout! Learn more

10-Day Weather Forecast

Advertisements
Track Severe Weather on mobile